createdAt,value
2019-04-23T00:00:20.460Z,35.03
2019-04-23T00:03:01.729Z,34.91
2019-04-23T00:08:07.598Z,34.83
2019-04-23T00:10:28.638Z,35.02
2019-04-23T00:12:52.964Z,34.52
2019-04-23T00:15:26.642Z,34.59
2019-04-23T00:17:55.519Z,34.75
2019-04-23T00:20:25.939Z,34.74
2019-04-23T00:23:14.335Z,34.77
2019-04-23T00:26:02.607Z,35.32
2019-04-23T00:35:55.506Z,35.70
2019-04-23T00:38:26.535Z,35.82
2019-04-23T00:43:21.855Z,36.30
2019-04-23T00:45:48.883Z,36.03
2019-04-23T00:48:31.021Z,36.26
2019-04-23T00:50:58.597Z,36.12
2019-04-23T00:53:18.798Z,36.31
2019-04-23T00:55:49.137Z,36.33
2019-04-23T01:00:47.476Z,36.63
2019-04-23T01:03:15.423Z,36.51
2019-04-23T01:05:41.150Z,36.48
2019-04-23T01:08:13.514Z,36.34
2019-04-23T01:10:52.071Z,36.51
2019-04-23T01:13:25.180Z,36.84
2019-04-23T01:15:48.119Z,36.62
2019-04-23T01:18:28.160Z,36.70
2019-04-23T01:20:51.822Z,36.46
2019-04-23T01:22:59.508Z,36.75
2019-04-23T01:25:43.663Z,36.78
2019-04-23T01:28:30.686Z,36.74
2019-04-23T01:31:07.752Z,36.90
2019-04-23T01:33:32.969Z,36.95
2019-04-23T01:38:30.981Z,36.92
2019-04-23T01:40:45.867Z,37.39
2019-04-23T01:43:23.169Z,37.21
2019-04-23T01:45:44.074Z,37.10
2019-04-23T01:48:19.980Z,37.29
2019-04-23T01:53:18.379Z,37.16
2019-04-23T01:55:49.779Z,37.03
2019-04-23T01:58:32.240Z,37.12
2019-04-23T02:03:18.181Z,37.17
2019-04-23T02:05:42.957Z,37.27
2019-04-23T02:08:10.997Z,37.58
2019-04-23T02:10:44.360Z,37.78
2019-04-23T02:13:14.144Z,37.89
2019-04-23T02:15:38.087Z,37.91
2019-04-23T02:20:36.035Z,37.94
2019-04-23T02:25:58.749Z,38.06
2019-04-23T02:28:32.851Z,38.39
2019-04-23T02:31:18.299Z,38.50
2019-04-23T02:33:44.529Z,38.73
2019-04-23T02:38:31.870Z,39.11
2019-04-23T02:41:08.560Z,38.88
2019-04-23T02:43:26.141Z,39.08
2019-04-23T02:46:04.429Z,39.12
2019-04-23T02:53:31.710Z,39.39
2019-04-23T03:03:37.912Z,39.94
2019-04-23T03:05:46.833Z,40.11
2019-04-23T03:08:13.668Z,40.12
2019-04-23T03:10:57.122Z,40.18
2019-04-23T03:13:21.660Z,40.41
2019-04-23T03:19:05.797Z,40.67
2019-04-23T03:21:52.898Z,41.03
2019-04-23T03:24:35.010Z,41.14
2019-04-23T03:29:39.777Z,42.01
2019-04-23T03:39:18.789Z,42.07
2019-04-23T03:41:48.008Z,42.05
2019-04-23T03:44:14.423Z,42.32
2019-04-23T03:46:37.091Z,42.50
2019-04-23T03:49:07.430Z,42.59
2019-04-23T03:51:46.793Z,42.66
2019-04-23T03:59:11.098Z,43.08
2019-04-23T04:01:38.417Z,43.27
2019-04-23T04:09:17.338Z,43.24
2019-04-23T04:11:25.645Z,43.35
2019-04-23T04:14:12.000Z,43.68
2019-04-23T04:16:39.064Z,43.71
2019-04-23T04:19:08.636Z,44.29
2019-04-23T04:24:20.396Z,44.01
2019-04-23T04:29:11.766Z,44.03
2019-04-23T04:31:40.025Z,44.07
2019-04-23T04:34:25.809Z,44.01
2019-04-23T04:41:25.494Z,44.39
2019-04-23T04:48:49.181Z,44.45
2019-04-23T05:01:16.607Z,44.71
2019-04-23T05:03:29.165Z,44.50
2019-04-23T05:06:18.308Z,44.31
2019-04-23T05:08:41.537Z,44.77
2019-04-23T05:18:38.467Z,44.76
2019-04-23T05:21:08.218Z,44.86
2019-04-23T05:26:13.609Z,44.62
2019-04-23T05:28:38.821Z,44.50
2019-04-23T05:31:05.791Z,44.49
2019-04-23T05:33:43.442Z,44.62
2019-04-23T05:38:43.295Z,44.12
2019-04-23T05:41:15.326Z,44.35
2019-04-23T05:43:37.342Z,44.29
2019-04-23T05:46:04.429Z,44.31
2019-04-23T05:48:49.174Z,44.27
2019-04-23T05:51:04.539Z,44.01
2019-04-23T05:58:28.824Z,40.79
2019-04-23T06:01:13.385Z,40.00
2019-04-23T06:03:29.103Z,40.18
2019-04-23T06:06:03.033Z,39.75
2019-04-23T06:08:33.717Z,39.01
2019-04-23T06:11:00.431Z,38.52
2019-04-23T06:13:26.034Z,37.54
2019-04-23T06:15:53.978Z,37.98
2019-04-23T06:18:28.549Z,37.30
2019-04-23T06:23:26.962Z,36.95
2019-04-23T06:26:02.299Z,36.49
2019-04-23T06:28:22.440Z,35.39
2019-04-23T06:30:49.078Z,35.05
2019-04-23T06:33:20.975Z,35.02
2019-04-23T06:35:46.951Z,34.97
2019-04-23T06:40:41.433Z,35.95
2019-04-23T06:43:22.712Z,36.86
2019-04-23T06:45:57.486Z,35.88
2019-04-23T06:48:20.642Z,35.59
2019-04-23T06:53:10.608Z,36.80
2019-04-23T06:55:42.548Z,36.70
2019-04-23T06:58:13.537Z,37.43
2019-04-23T07:00:41.317Z,37.20
2019-04-23T07:03:07.718Z,35.49
2019-04-23T07:06:05.288Z,31.34
2019-04-23T07:08:34.686Z,28.29
2019-04-23T07:10:57.541Z,25.97
2019-04-23T07:13:26.079Z,25.15
2019-04-23T07:16:03.442Z,23.64
2019-04-23T07:18:18.151Z,23.55
2019-04-23T07:20:51.177Z,22.20
2019-04-23T07:23:24.600Z,21.49
2019-04-23T07:25:46.799Z,20.86
2019-04-23T07:28:18.049Z,20.04
2019-04-23T07:30:38.366Z,21.61
2019-04-23T07:33:11.923Z,23.08
2019-04-23T07:35:47.946Z,23.24
2019-04-23T07:38:44.258Z,21.96
2019-04-23T07:41:19.940Z,20.45
2019-04-23T07:43:48.598Z,19.89
2019-04-23T07:46:46.333Z,19.60
2019-04-23T07:48:49.114Z,18.71
2019-04-23T07:51:19.796Z,17.45
2019-04-23T07:54:05.872Z,16.93
2019-04-23T07:56:58.542Z,16.65
2019-04-23T08:00:00.786Z,17.07
2019-04-23T08:02:33.579Z,16.36
2019-04-23T08:05:25.162Z,17.45
2019-04-23T08:11:11.012Z,17.70
2019-04-23T08:16:36.708Z,17.80
2019-04-23T08:17:16.087Z,18.31
2019-04-23T08:19:16.983Z,16.83
2019-04-23T08:21:37.798Z,16.23
2019-04-23T08:24:38.079Z,16.60
2019-04-23T08:27:28.214Z,15.67
2019-04-23T08:30:24.055Z,16.05
2019-04-23T08:33:08.451Z,16.12
2019-04-23T08:35:45.434Z,15.86
2019-04-23T08:38:37.892Z,14.66
2019-04-23T08:44:59.463Z,14.37
2019-04-23T08:52:48.373Z,14.21
2019-04-23T09:00:09.032Z,14.19
2019-04-23T09:02:40.317Z,14.31
2019-04-23T09:08:33.143Z,15.03
2019-04-23T09:20:07.057Z,17.68
2019-04-23T09:25:25.336Z,18.77
2019-04-23T09:27:47.097Z,18.76
2019-04-23T09:30:25.633Z,18.93
2019-04-23T09:33:13.931Z,19.77
2019-04-23T09:39:51.281Z,20.38
2019-04-23T09:43:00.676Z,20.07
2019-04-23T09:48:58.003Z,19.14
2019-04-23T09:55:32.173Z,18.91
2019-04-23T09:58:03.130Z,18.90
2019-04-23T10:03:16.662Z,18.30
2019-04-23T10:05:56.339Z,17.71
2019-04-23T10:08:27.925Z,17.17
2019-04-23T10:11:28.560Z,17.03
2019-04-23T10:13:48.426Z,17.37
2019-04-23T10:16:42.914Z,16.47
2019-04-23T10:19:15.134Z,17.16
2019-04-23T10:21:51.503Z,17.28
2019-04-23T10:24:39.236Z,16.77
2019-04-23T10:27:31.004Z,17.32
2019-04-23T10:29:56.129Z,17.59
2019-04-23T10:32:29.758Z,18.76
2019-04-23T10:37:49.116Z,19.23
2019-04-23T10:40:19.401Z,19.62
2019-04-23T10:46:32.556Z,20.90
2019-04-23T10:54:59.041Z,22.77
2019-04-23T10:57:25.296Z,23.10
2019-04-23T10:59:53.932Z,23.69
2019-04-23T11:02:59.106Z,23.41
2019-04-23T11:05:26.638Z,23.94
2019-04-23T11:08:10.508Z,24.43
2019-04-23T11:10:50.331Z,24.22
2019-04-23T11:13:31.986Z,24.19
2019-04-23T11:16:27.609Z,25.23
2019-04-23T11:18:52.162Z,25.00
2019-04-23T11:21:23.958Z,25.56
2019-04-23T11:26:49.572Z,25.52
2019-04-23T11:29:27.635Z,26.19
2019-04-23T11:32:31.361Z,26.75
2019-04-23T11:34:53.020Z,26.01
2019-04-23T11:37:03.599Z,25.87
2019-04-23T11:39:37.791Z,25.42
2019-04-23T11:42:14.456Z,25.98
2019-04-23T11:44:41.952Z,26.01
2019-04-23T11:47:32.604Z,25.91
2019-04-23T11:50:01.479Z,25.67
2019-04-23T11:55:32.831Z,25.90
2019-04-23T11:58:08.408Z,26.57
2019-04-23T12:00:34.869Z,27.32
2019-04-23T12:03:19.312Z,26.73
2019-04-23T12:06:30.111Z,26.88
2019-04-23T12:09:40.050Z,27.45
2019-04-23T12:12:17.157Z,26.91
2019-04-23T12:15:13.428Z,27.00
2019-04-23T12:17:49.092Z,27.45
2019-04-23T12:20:27.122Z,27.45
2019-04-23T12:23:25.934Z,27.87
2019-04-23T12:25:49.900Z,28.06
2019-04-23T12:28:39.857Z,27.99
2019-04-23T12:33:50.219Z,27.75
2019-04-23T12:36:36.919Z,27.58
2019-04-23T12:39:04.340Z,27.93
2019-04-23T12:41:36.143Z,27.73
2019-04-23T12:44:44.173Z,27.40
2019-04-23T12:47:10.359Z,27.33
2019-04-23T12:49:53.303Z,27.60
2019-04-23T12:52:36.437Z,27.85
2019-04-23T13:05:26.710Z,27.60
2019-04-23T13:10:44.150Z,27.80
2019-04-23T13:13:21.153Z,28.60
2019-04-23T13:18:19.519Z,28.67
2019-04-23T13:21:00.114Z,28.01
2019-04-23T13:26:18.472Z,29.13
2019-04-23T13:28:58.143Z,29.09
2019-04-23T13:34:06.926Z,29.04
2019-04-23T13:36:36.241Z,28.63
2019-04-23T13:39:09.456Z,29.01
2019-04-23T13:41:54.061Z,29.35
2019-04-23T13:44:00.120Z,29.52
2019-04-23T13:46:36.058Z,29.84
2019-04-23T13:49:09.979Z,28.74
2019-04-23T13:51:42.741Z,29.25
2019-04-23T13:54:17.317Z,29.39
2019-04-23T13:57:14.418Z,29.10
2019-04-23T13:59:21.761Z,28.84
2019-04-23T14:01:43.040Z,29.08
2019-04-23T14:04:33.314Z,29.11
2019-04-23T14:09:37.312Z,28.91
2019-04-23T14:12:22.339Z,28.65
2019-04-23T14:15:12.559Z,28.62
2019-04-23T14:23:14.230Z,29.21
2019-04-23T14:30:53.537Z,28.91
2019-04-23T14:36:07.524Z,28.99
2019-04-23T14:38:40.079Z,29.13
2019-04-23T14:41:16.484Z,29.69
2019-04-23T14:44:05.338Z,29.36
2019-04-23T14:46:54.875Z,29.21
2019-04-23T14:49:40.848Z,29.70
2019-04-23T14:52:10.566Z,29.38
2019-04-23T14:55:17.902Z,29.48
2019-04-23T14:57:24.528Z,29.12
2019-04-23T14:59:59.953Z,29.45
2019-04-23T15:02:22.845Z,29.72
2019-04-23T15:05:04.131Z,28.96
2019-04-23T15:07:37.540Z,28.28
2019-04-23T15:10:08.846Z,28.23
2019-04-23T15:12:42.513Z,28.72
2019-04-23T15:17:49.704Z,28.90
2019-04-23T15:20:48.832Z,28.75
2019-04-23T15:23:14.289Z,28.51
2019-04-23T15:25:36.967Z,28.38
2019-04-23T15:28:06.717Z,28.61
2019-04-23T15:30:34.849Z,28.86
2019-04-23T15:36:21.982Z,29.15
2019-04-23T15:38:45.384Z,28.68
2019-04-23T15:41:06.674Z,28.60
2019-04-23T15:43:30.557Z,28.58
2019-04-23T15:46:02.588Z,28.99
2019-04-23T15:48:33.048Z,29.15
2019-04-23T15:51:11.723Z,28.96
2019-04-23T15:53:35.274Z,29.22
2019-04-23T15:56:18.706Z,29.04
2019-04-23T15:58:54.152Z,29.29
2019-04-23T16:01:27.105Z,29.22
2019-04-23T16:03:20.536Z,29.47
2019-04-23T16:05:48.880Z,29.00
2019-04-23T16:08:51.715Z,29.56
2019-04-23T16:19:29.221Z,29.72
2019-04-23T16:22:04.605Z,30.19
2019-04-23T16:24:59.046Z,30.34
2019-04-23T16:27:10.743Z,30.57
2019-04-23T16:30:06.322Z,30.10
2019-04-23T16:35:15.574Z,30.42
2019-04-23T16:37:38.843Z,30.49
2019-04-23T16:40:10.331Z,30.42
2019-04-23T16:42:38.528Z,30.20
2019-04-23T16:45:15.215Z,30.41
2019-04-23T16:47:36.536Z,30.64
2019-04-23T16:50:31.100Z,30.91
2019-04-23T16:56:04.268Z,31.19
2019-04-23T16:58:36.707Z,31.39
2019-04-23T17:01:08.599Z,31.77
2019-04-23T17:03:44.597Z,31.81
2019-04-23T17:08:57.430Z,32.23
2019-04-23T17:11:26.949Z,32.49
2019-04-23T17:16:34.232Z,33.10
2019-04-23T17:19:36.810Z,33.34
2019-04-23T17:22:04.621Z,33.29
2019-04-23T17:24:29.908Z,33.29
2019-04-23T17:27:11.086Z,33.56
2019-04-23T17:29:35.220Z,33.31
2019-04-23T17:32:06.017Z,34.02
2019-04-23T17:37:26.722Z,34.39
2019-04-23T17:40:08.694Z,34.68
2019-04-23T17:42:56.279Z,34.67
2019-04-23T17:45:32.430Z,35.13
2019-04-23T17:51:02.438Z,35.26
2019-04-23T17:53:44.405Z,35.21
2019-04-23T17:56:18.513Z,35.52
2019-04-23T17:58:49.951Z,35.64
2019-04-23T18:01:29.288Z,35.43
2019-04-23T18:08:49.260Z,36.05
2019-04-23T18:11:23.315Z,36.14
2019-04-23T18:14:02.550Z,36.28
2019-04-23T18:16:50.451Z,36.60
2019-04-23T18:19:15.029Z,36.66
2019-04-23T18:21:53.304Z,36.77
2019-04-23T18:24:44.909Z,37.16
2019-04-23T18:27:21.551Z,37.21
2019-04-23T18:38:22.859Z,38.22
2019-04-23T18:46:03.958Z,38.53
2019-04-23T18:51:00.350Z,38.79
2019-04-23T18:53:40.885Z,39.16
2019-04-23T18:56:06.590Z,39.07
2019-04-23T18:58:34.488Z,39.38
2019-04-23T19:01:05.229Z,39.29
2019-04-23T19:03:48.404Z,39.46
2019-04-23T19:06:34.606Z,39.93
2019-04-23T19:09:32.323Z,39.86
2019-04-23T19:12:30.738Z,40.45
2019-04-23T19:15:01.129Z,40.52
2019-04-23T19:20:01.083Z,40.69
2019-04-23T19:22:43.205Z,40.98
2019-04-23T19:25:02.030Z,41.24
2019-04-23T19:27:37.645Z,41.17
2019-04-23T19:30:18.872Z,41.18
2019-04-23T19:32:50.853Z,41.35
2019-04-23T19:35:23.917Z,41.92
2019-04-23T19:38:05.819Z,41.75
2019-04-23T19:40:24.521Z,42.01
2019-04-23T19:42:55.410Z,42.25
2019-04-23T19:45:29.805Z,42.61
2019-04-23T19:48:00.154Z,42.33
2019-04-23T19:50:25.915Z,42.48
2019-04-23T19:55:19.203Z,42.74
2019-04-23T19:58:04.220Z,42.74
2019-04-23T20:00:56.757Z,42.99
2019-04-23T20:05:54.405Z,43.12
2019-04-23T20:10:55.974Z,43.44
2019-04-23T20:13:37.819Z,43.77
2019-04-23T20:18:42.759Z,44.26
2019-04-23T20:23:43.244Z,44.19
2019-04-23T20:32:34.600Z,44.76
2019-04-23T20:36:40.096Z,44.94
2019-04-23T20:44:42.903Z,45.05
2019-04-23T20:52:07.207Z,45.06
2019-04-23T20:55:00.082Z,44.84
2019-04-23T20:57:42.567Z,45.24
2019-04-23T21:15:31.344Z,46.26
2019-04-23T21:17:58.136Z,46.22
2019-04-23T21:25:30.192Z,46.54
2019-04-23T21:33:24.570Z,47.16
2019-04-23T21:36:38.513Z,47.06
2019-04-23T21:42:14.829Z,47.01
2019-04-23T21:44:40.737Z,47.08
2019-04-23T21:47:09.923Z,47.13
2019-04-23T21:49:57.894Z,47.52
2019-04-23T21:52:11.457Z,47.45
2019-04-23T21:54:42.950Z,47.97
2019-04-23T21:57:11.024Z,47.72
2019-04-23T21:59:46.753Z,47.44
2019-04-23T22:02:13.326Z,47.87
2019-04-23T22:04:39.789Z,47.73
2019-04-23T22:07:27.385Z,47.85
2019-04-23T22:14:40.145Z,48.23
2019-04-23T22:17:02.993Z,48.52
2019-04-23T22:19:26.444Z,48.62
2019-04-23T22:21:55.590Z,48.47
2019-04-23T22:24:27.619Z,48.86
2019-04-23T22:26:58.156Z,48.72
2019-04-23T22:29:37.748Z,48.87
2019-04-23T22:32:02.456Z,49.06
2019-04-23T22:37:14.876Z,49.22
2019-04-23T22:39:33.778Z,49.29
2019-04-23T22:44:32.866Z,49.47
2019-04-23T22:47:00.654Z,49.74
2019-04-23T22:49:38.891Z,49.73
2019-04-23T22:54:30.627Z,49.90
2019-04-23T23:02:41.527Z,50.61
2019-04-23T23:04:51.610Z,50.81
2019-04-23T23:07:15.769Z,50.94
2019-04-23T23:09:56.459Z,50.73
2019-04-23T23:12:14.551Z,50.74
2019-04-23T23:14:45.910Z,50.96
2019-04-23T23:17:16.255Z,51.16
2019-04-23T23:22:20.136Z,51.23
2019-04-23T23:24:38.624Z,51.66
2019-04-23T23:27:15.213Z,51.58
2019-04-23T23:29:28.055Z,51.45
2019-04-23T23:34:36.202Z,51.63
2019-04-23T23:37:07.523Z,51.95
2019-04-23T23:39:27.172Z,52.48
2019-04-23T23:47:03.839Z,52.19
2019-04-23T23:49:27.831Z,52.31
2019-04-23T23:52:09.520Z,52.43
2019-04-23T23:54:41.486Z,52.47
2019-04-23T23:59:21.145Z,52.76
